KSSI/SSI METAR and TAF weather

Enter ICAO airport designator
Station Type Date Time Source
KSSI METAR 2021/09/24 03:53 UTC NOAA

KSSI 240353Z AUTO 35004KT 10SM CLR 19/17 A3000 RMK AO2 SLP161 T01890172


Station Type Date Time Source
KSSI Decoded METAR 2021/09/24 03:53 UTC NOAA

BRUNSWICK MC KINNON AIRPORT , GA, United States (KSSI) 31-09N 081-23W 6M
Sep 23, 2021 - 11:53 PM EDT / 2021.09.24 0353 UTC
Wind: from the N (350 degrees) at 5 MPH (4 KT):0
Visibility: 10 mile(s):0
Sky conditions: clear
Temperature: 66.0 F (18.9 C)
Dew Point: 63.0 F (17.2 C)
Relative Humidity: 89%
Pressure (altimeter): 30 in. Hg (1015 hPa)
ob: KSSI 240353Z AUTO 35004KT 10SM CLR 19/17 A3000 RMK AO2 SLP161 T01890172
cycle: 4

Station Type Date Time Source
KSSI TAF 2021/09/23 18:22 UTC NOAA

TAF KSSI 231720Z 2318/2418 32009KT P6SM SKC
FM240000 34005KT P6SM SKC

Example: see airport list